Historical Data

TheSutherlands

Weather at Humberside Airport

Current Weather from Humberside Airport

The information displayed on this page is from the METAR reports produced by Humberside Airport. Note that there are times when these are not generated.

Weather Report

Coded Weather Report: 2019/06/16 04:20 EGNJ 160420Z AUTO 19008KT 9999 NCD 08/07 Q1013

Report issued: 2019/06/16 at 04:20 UTC

Weather: Code: AUTO
Wind: gentle breeze from the south (190 degrees) at 8 knots (9 mph, 15 kph, Force 3)
Visibility: 10km or more
Weather: Code: NCD
Temperature: 8 C
Dewpoint: 7 C
Humidity: 93%
Pressure: 1013 hPa